METAR Formatted Surface Weather Observation
Issued by NWS

Home | Current Version | Previous Version | Text Only | Print | Product List | Glossary On
Versions: 1
000
SPZS31 NSTU 221021
MTRSPP
SPECI NSTU 221018Z 11018KT 1/2SM +SHRA VV006 25/25 A2992=


USA.gov is the U.S. government's official web portal to all federal, state and local government web resources and services.